Halifax, Kentucky
Current Conditions -  °F | °C
As of 6:53 PM on Monday 22 Dec 2014 (Local Time) from KBWG Reporting Station
Overcast Overcast  
Wind Chill: 53°   Ceiling: 1700
Heat Index: 53°   Visibility: 10mi
Dew Point: 47°   Wind: 12mph
Humidity: 80%   Direction: 140°SE
Pressure: 29.71"   Gusts: NA
Location:  36.7794°N, 86.196°W
Report Text: KBWG 230053Z AUTO 14010KT 10SM OVC017 12/08 A2971 RMK AO2 SLP060 T01170083
Loading
Personal Weather Stations






























Interactive Weather Map New forecast layout! Learn more

10-Day Weather Forecast

Advertisements
Track Severe Weather on mobile